sensor_id;sensor_type;location;lat;lon;timestamp;temperature;humidity
4813;DHT22;2420;51.202;8.698;2022-09-09T00:02:08;13.60;1.00
4813;DHT22;2420;51.202;8.698;2022-09-09T00:04:38;13.60;1.00
4813;DHT22;2420;51.202;8.698;2022-09-09T00:07:28;13.60;1.00
4813;DHT22;2420;51.202;8.698;2022-09-09T00:15:16;13.70;1.00
4813;DHT22;2420;51.202;8.698;2022-09-09T00:20:47;13.60;1.00
4813;DHT22;2420;51.202;8.698;2022-09-09T00:23:31;13.50;1.00
4813;DHT22;2420;51.202;8.698;2022-09-09T00:26:09;13.50;1.00
4813;DHT22;2420;51.202;8.698;2022-09-09T00:28:42;13.50;1.00
4813;DHT22;2420;51.202;8.698;2022-09-09T00:31:18;13.50;1.00
4813;DHT22;2420;51.202;8.698;2022-09-09T00:33:46;13.40;1.00
4813;DHT22;2420;51.202;8.698;2022-09-09T00:36:16;13.30;1.00
4813;DHT22;2420;51.202;8.698;2022-09-09T00:38:55;13.30;1.00
4813;DHT22;2420;51.202;8.698;2022-09-09T00:41:41;13.30;1.00
4813;DHT22;2420;51.202;8.698;2022-09-09T00:44:17;13.30;1.00
4813;DHT22;2420;51.202;8.698;2022-09-09T00:47:17;13.20;1.00
4813;DHT22;2420;51.202;8.698;2022-09-09T00:55:30;13.00;1.00
4813;DHT22;2420;51.202;8.698;2022-09-09T00:57:59;13.00;1.00
4813;DHT22;2420;51.202;8.698;2022-09-09T01:00:27;13.00;1.00
4813;DHT22;2420;51.202;8.698;2022-09-09T01:03:10;13.00;1.00
4813;DHT22;2420;51.202;8.698;2022-09-09T01:11:13;12.90;1.00
4813;DHT22;2420;51.202;8.698;2022-09-09T01:13:41;12.90;1.00
4813;DHT22;2420;51.202;8.698;2022-09-09T01:16:10;12.90;1.00
4813;DHT22;2420;51.202;8.698;2022-09-09T01:18:43;12.80;1.00
4813;DHT22;2420;51.202;8.698;2022-09-09T01:22:01;12.80;1.00
4813;DHT22;2420;51.202;8.698;2022-09-09T01:24:40;12.70;1.00
4813;DHT22;2420;51.202;8.698;2022-09-09T01:27:08;12.70;1.00
4813;DHT22;2420;51.202;8.698;2022-09-09T01:29:36;12.70;1.00
4813;DHT22;2420;51.202;8.698;2022-09-09T01:35:09;12.60;1.00
4813;DHT22;2420;51.202;8.698;2022-09-09T01:37:36;12.60;1.00
4813;DHT22;2420;51.202;8.698;2022-09-09T01:40:02;12.60;1.00
4813;DHT22;2420;51.202;8.698;2022-09-09T01:42:27;12.60;1.00
4813;DHT22;2420;51.202;8.698;2022-09-09T01:44:53;12.50;1.00
4813;DHT22;2420;51.202;8.698;2022-09-09T01:47:19;12.50;1.00
4813;DHT22;2420;51.202;8.698;2022-09-09T01:49:45;12.50;1.00
4813;DHT22;2420;51.202;8.698;2022-09-09T01:52:10;12.50;1.00
4813;DHT22;2420;51.202;8.698;2022-09-09T01:54:36;12.50;1.00
4813;DHT22;2420;51.202;8.698;2022-09-09T01:57:17;12.40;1.00
4813;DHT22;2420;51.202;8.698;2022-09-09T02:02:38;12.30;1.00
4813;DHT22;2420;51.202;8.698;2022-09-09T02:05:27;12.40;1.00
4813;DHT22;2420;51.202;8.698;2022-09-09T02:10:42;12.60;1.00
4813;DHT22;2420;51.202;8.698;2022-09-09T02:13:15;12.60;1.00
4813;DHT22;2420;51.202;8.698;2022-09-09T02:15:54;12.60;1.00
4813;DHT22;2420;51.202;8.698;2022-09-09T02:18:26;12.60;1.00
4813;DHT22;2420;51.202;8.698;2022-09-09T02:20:54;12.60;1.00
4813;DHT22;2420;51.202;8.698;2022-09-09T02:23:21;12.60;1.00
4813;DHT22;2420;51.202;8.698;2022-09-09T02:25:48;12.60;1.00
4813;DHT22;2420;51.202;8.698;2022-09-09T02:28:15;12.70;1.00
4813;DHT22;2420;51.202;8.698;2022-09-09T02:30:44;12.70;1.00
4813;DHT22;2420;51.202;8.698;2022-09-09T02:33:13;12.80;1.00
4813;DHT22;2420;51.202;8.698;2022-09-09T02:35:41;12.80;1.00
4813;DHT22;2420;51.202;8.698;2022-09-09T02:38:11;12.90;1.00
4813;DHT22;2420;51.202;8.698;2022-09-09T02:40:38;12.90;1.00
4813;DHT22;2420;51.202;8.698;2022-09-09T02:43:03;12.90;1.00
4813;DHT22;2420;51.202;8.698;2022-09-09T02:45:39;13.00;1.00
4813;DHT22;2420;51.202;8.698;2022-09-09T02:48:18;13.00;1.00
4813;DHT22;2420;51.202;8.698;2022-09-09T02:51:15;13.00;1.00
4813;DHT22;2420;51.202;8.698;2022-09-09T02:56:17;12.90;1.00
4813;DHT22;2420;51.202;8.698;2022-09-09T02:58:43;12.80;1.00
4813;DHT22;2420;51.202;8.698;2022-09-09T03:01:09;12.90;1.00
4813;DHT22;2420;51.202;8.698;2022-09-09T03:03:35;12.90;1.00
4813;DHT22;2420;51.202;8.698;2022-09-09T03:06:01;12.90;1.00
4813;DHT22;2420;51.202;8.698;2022-09-09T03:08:26;12.80;1.00
4813;DHT22;2420;51.202;8.698;2022-09-09T03:10:54;12.80;1.00
4813;DHT22;2420;51.202;8.698;2022-09-09T03:13:20;12.80;1.00
4813;DHT22;2420;51.202;8.698;2022-09-09T03:15:47;12.80;1.00
4813;DHT22;2420;51.202;8.698;2022-09-09T03:18:13;12.80;1.00
4813;DHT22;2420;51.202;8.698;2022-09-09T03:20:39;12.70;1.00
4813;DHT22;2420;51.202;8.698;2022-09-09T03:23:07;12.80;1.00
4813;DHT22;2420;51.202;8.698;2022-09-09T03:25:33;12.80;1.00
4813;DHT22;2420;51.202;8.698;2022-09-09T03:27:58;12.80;1.00
4813;DHT22;2420;51.202;8.698;2022-09-09T03:30:26;12.90;1.00
4813;DHT22;2420;51.202;8.698;2022-09-09T03:32:52;12.90;1.00
4813;DHT22;2420;51.202;8.698;2022-09-09T03:35:18;12.90;1.00
4813;DHT22;2420;51.202;8.698;2022-09-09T03:37:43;13.00;1.00
4813;DHT22;2420;51.202;8.698;2022-09-09T03:40:10;13.00;1.00
4813;DHT22;2420;51.202;8.698;2022-09-09T03:42:36;13.00;1.00
4813;DHT22;2420;51.202;8.698;2022-09-09T03:45:04;13.10;1.00
4813;DHT22;2420;51.202;8.698;2022-09-09T03:47:30;13.10;1.00
4813;DHT22;2420;51.202;8.698;2022-09-09T03:49:55;13.10;1.00
4813;DHT22;2420;51.202;8.698;2022-09-09T03:52:21;13.20;1.00
4813;DHT22;2420;51.202;8.698;2022-09-09T03:54:50;13.20;1.00
4813;DHT22;2420;51.202;8.698;2022-09-09T03:57:16;13.20;1.00
4813;DHT22;2420;51.202;8.698;2022-09-09T03:59:43;13.20;1.00
4813;DHT22;2420;51.202;8.698;2022-09-09T04:02:08;13.20;1.00
4813;DHT22;2420;51.202;8.698;2022-09-09T04:04:34;13.30;1.00
4813;DHT22;2420;51.202;8.698;2022-09-09T04:07:00;13.20;1.00
4813;DHT22;2420;51.202;8.698;2022-09-09T04:09:26;13.20;1.00
4813;DHT22;2420;51.202;8.698;2022-09-09T04:11:51;13.20;1.00
4813;DHT22;2420;51.202;8.698;2022-09-09T04:14:18;13.20;1.00
4813;DHT22;2420;51.202;8.698;2022-09-09T04:16:44;13.20;1.00
4813;DHT22;2420;51.202;8.698;2022-09-09T04:19:10;13.20;1.00
4813;DHT22;2420;51.202;8.698;2022-09-09T04:21:38;13.20;1.00
4813;DHT22;2420;51.202;8.698;2022-09-09T04:24:05;13.20;1.00
4813;DHT22;2420;51.202;8.698;2022-09-09T04:26:31;13.10;1.00
4813;DHT22;2420;51.202;8.698;2022-09-09T04:28:57;13.20;1.00
4813;DHT22;2420;51.202;8.698;2022-09-09T04:31:23;13.20;1.00
4813;DHT22;2420;51.202;8.698;2022-09-09T04:33:49;13.30;1.00
4813;DHT22;2420;51.202;8.698;2022-09-09T04:36:16;13.30;1.00
4813;DHT22;2420;51.202;8.698;2022-09-09T04:38:41;13.40;1.00
4813;DHT22;2420;51.202;8.698;2022-09-09T04:41:07;13.40;1.00
4813;DHT22;2420;51.202;8.698;2022-09-09T04:43:33;13.50;1.00
4813;DHT22;2420;51.202;8.698;2022-09-09T04:45:59;13.40;1.00
4813;DHT22;2420;51.202;8.698;2022-09-09T04:48:25;13.40;1.00
4813;DHT22;2420;51.202;8.698;2022-09-09T04:51:02;13.40;1.00
4813;DHT22;2420;51.202;8.698;2022-09-09T04:53:29;13.40;1.00
4813;DHT22;2420;51.202;8.698;2022-09-09T04:58:31;13.50;1.00
4813;DHT22;2420;51.202;8.698;2022-09-09T05:01:17;13.50;1.00
4813;DHT22;2420;51.202;8.698;2022-09-09T05:03:44;13.50;1.00
4813;DHT22;2420;51.202;8.698;2022-09-09T05:06:13;13.60;1.00
4813;DHT22;2420;51.202;8.698;2022-09-09T05:08:40;13.70;1.00
4813;DHT22;2420;51.202;8.698;2022-09-09T05:11:28;13.80;1.00
4813;DHT22;2420;51.202;8.698;2022-09-09T05:13:54;13.80;1.00
4813;DHT22;2420;51.202;8.698;2022-09-09T05:16:21;13.80;1.00
4813;DHT22;2420;51.202;8.698;2022-09-09T05:18:48;13.70;1.00
4813;DHT22;2420;51.202;8.698;2022-09-09T05:21:16;13.80;1.00
4813;DHT22;2420;51.202;8.698;2022-09-09T05:23:42;13.80;1.00
4813;DHT22;2420;51.202;8.698;2022-09-09T05:26:12;13.70;1.00
4813;DHT22;2420;51.202;8.698;2022-09-09T05:28:38;13.70;1.00
4813;DHT22;2420;51.202;8.698;2022-09-09T05:31:06;13.80;1.00
4813;DHT22;2420;51.202;8.698;2022-09-09T05:33:37;13.80;1.00
4813;DHT22;2420;51.202;8.698;2022-09-09T05:36:07;13.80;1.00
4813;DHT22;2420;51.202;8.698;2022-09-09T05:38:34;13.90;1.00
4813;DHT22;2420;51.202;8.698;2022-09-09T05:41:01;13.90;1.00
4813;DHT22;2420;51.202;8.698;2022-09-09T05:43:28;14.00;1.00
4813;DHT22;2420;51.202;8.698;2022-09-09T05:46:02;14.10;1.00
4813;DHT22;2420;51.202;8.698;2022-09-09T05:48:32;14.10;1.00
4813;DHT22;2420;51.202;8.698;2022-09-09T05:50:58;14.20;1.00
4813;DHT22;2420;51.202;8.698;2022-09-09T05:53:25;14.20;1.00
4813;DHT22;2420;51.202;8.698;2022-09-09T05:56:04;14.20;1.00
4813;DHT22;2420;51.202;8.698;2022-09-09T05:58:31;14.20;1.00
4813;DHT22;2420;51.202;8.698;2022-09-09T06:01:11;14.20;1.00
4813;DHT22;2420;51.202;8.698;2022-09-09T06:03:39;14.30;1.00
4813;DHT22;2420;51.202;8.698;2022-09-09T06:06:07;14.40;1.00
4813;DHT22;2420;51.202;8.698;2022-09-09T06:08:37;14.40;1.00
4813;DHT22;2420;51.202;8.698;2022-09-09T06:11:08;14.50;1.00
4813;DHT22;2420;51.202;8.698;2022-09-09T06:13:34;14.60;1.00
4813;DHT22;2420;51.202;8.698;2022-09-09T06:16:02;14.60;1.00
4813;DHT22;2420;51.202;8.698;2022-09-09T06:18:28;14.60;1.00
4813;DHT22;2420;51.202;8.698;2022-09-09T06:21:00;14.60;1.00
4813;DHT22;2420;51.202;8.698;2022-09-09T06:23:26;14.50;1.00
4813;DHT22;2420;51.202;8.698;2022-09-09T06:26:07;14.60;1.00
4813;DHT22;2420;51.202;8.698;2022-09-09T06:28:33;14.50;1.00
4813;DHT22;2420;51.202;8.698;2022-09-09T06:31:01;14.50;1.00
4813;DHT22;2420;51.202;8.698;2022-09-09T06:33:31;14.40;1.00
4813;DHT22;2420;51.202;8.698;2022-09-09T06:35:56;14.50;1.00
4813;DHT22;2420;51.202;8.698;2022-09-09T06:38:22;14.60;1.00
4813;DHT22;2420;51.202;8.698;2022-09-09T06:40:55;14.70;1.00
4813;DHT22;2420;51.202;8.698;2022-09-09T06:43:22;14.90;1.00
4813;DHT22;2420;51.202;8.698;2022-09-09T06:48:19;15.00;1.00
4813;DHT22;2420;51.202;8.698;2022-09-09T06:50:45;15.10;1.00
4813;DHT22;2420;51.202;8.698;2022-09-09T06:53:11;15.20;1.00
4813;DHT22;2420;51.202;8.698;2022-09-09T06:55:37;15.30;1.00
4813;DHT22;2420;51.202;8.698;2022-09-09T06:58:02;15.30;1.00
4813;DHT22;2420;51.202;8.698;2022-09-09T07:00:32;15.50;1.00
4813;DHT22;2420;51.202;8.698;2022-09-09T07:02:58;15.70;1.00
4813;DHT22;2420;51.202;8.698;2022-09-09T07:05:23;15.90;1.00
4813;DHT22;2420;51.202;8.698;2022-09-09T07:07:51;16.00;1.00
4813;DHT22;2420;51.202;8.698;2022-09-09T07:10:17;16.10;1.00
4813;DHT22;2420;51.202;8.698;2022-09-09T07:12:42;16.10;1.00
4813;DHT22;2420;51.202;8.698;2022-09-09T07:15:08;16.20;1.00
4813;DHT22;2420;51.202;8.698;2022-09-09T07:17:35;16.10;1.00
4813;DHT22;2420;51.202;8.698;2022-09-09T07:20:01;16.00;1.00
4813;DHT22;2420;51.202;8.698;2022-09-09T07:22:27;16.00;1.00
4813;DHT22;2420;51.202;8.698;2022-09-09T07:24:53;16.00;1.00
4813;DHT22;2420;51.202;8.698;2022-09-09T07:27:18;15.90;1.00
4813;DHT22;2420;51.202;8.698;2022-09-09T07:29:44;15.90;1.00
4813;DHT22;2420;51.202;8.698;2022-09-09T07:32:10;15.80;1.00
4813;DHT22;2420;51.202;8.698;2022-09-09T07:34:36;15.90;1.00
4813;DHT22;2420;51.202;8.698;2022-09-09T07:37:02;15.90;1.00
4813;DHT22;2420;51.202;8.698;2022-09-09T07:39:27;16.00;1.00
4813;DHT22;2420;51.202;8.698;2022-09-09T07:41:53;16.20;1.00
4813;DHT22;2420;51.202;8.698;2022-09-09T07:44:23;16.30;1.00
4813;DHT22;2420;51.202;8.698;2022-09-09T07:46:52;16.50;1.00
4813;DHT22;2420;51.202;8.698;2022-09-09T07:49:18;16.50;1.00
4813;DHT22;2420;51.202;8.698;2022-09-09T07:51:45;16.60;1.00
4813;DHT22;2420;51.202;8.698;2022-09-09T07:54:14;16.70;1.00
4813;DHT22;2420;51.202;8.698;2022-09-09T07:56:40;16.80;1.00
4813;DHT22;2420;51.202;8.698;2022-09-09T07:59:07;16.90;1.00
4813;DHT22;2420;51.202;8.698;2022-09-09T08:01:38;16.90;1.00
4813;DHT22;2420;51.202;8.698;2022-09-09T08:04:10;16.90;1.00
4813;DHT22;2420;51.202;8.698;2022-09-09T08:07:00;16.80;1.00
4813;DHT22;2420;51.202;8.698;2022-09-09T08:09:27;16.80;1.00
4813;DHT22;2420;51.202;8.698;2022-09-09T08:11:55;16.80;1.00
4813;DHT22;2420;51.202;8.698;2022-09-09T08:14:22;16.80;1.00
4813;DHT22;2420;51.202;8.698;2022-09-09T08:16:49;16.90;1.00
4813;DHT22;2420;51.202;8.698;2022-09-09T08:19:14;17.00;1.00
4813;DHT22;2420;51.202;8.698;2022-09-09T08:21:42;17.20;1.00
4813;DHT22;2420;51.202;8.698;2022-09-09T08:24:09;17.40;1.00
4813;DHT22;2420;51.202;8.698;2022-09-09T08:26:46;17.30;1.00
4813;DHT22;2420;51.202;8.698;2022-09-09T08:29:14;17.20;1.00
4813;DHT22;2420;51.202;8.698;2022-09-09T08:31:45;17.20;1.00
4813;DHT22;2420;51.202;8.698;2022-09-09T08:34:12;17.40;1.00
4813;DHT22;2420;51.202;8.698;2022-09-09T08:36:40;17.40;1.00
4813;DHT22;2420;51.202;8.698;2022-09-09T08:39:08;17.30;1.00
4813;DHT22;2420;51.202;8.698;2022-09-09T08:47:33;17.20;1.00
4813;DHT22;2420;51.202;8.698;2022-09-09T08:50:21;17.20;1.00
4813;DHT22;2420;51.202;8.698;2022-09-09T08:58:14;17.40;1.00
4813;DHT22;2420;51.202;8.698;2022-09-09T09:03:55;18.00;1.00
4813;DHT22;2420;51.202;8.698;2022-09-09T09:06:40;18.30;1.00
4813;DHT22;2420;51.202;8.698;2022-09-09T09:11:57;18.30;1.00
4813;DHT22;2420;51.202;8.698;2022-09-09T09:14:30;18.20;1.00
4813;DHT22;2420;51.202;8.698;2022-09-09T09:17:02;18.30;1.00
4813;DHT22;2420;51.202;8.698;2022-09-09T09:19:30;18.40;1.00
4813;DHT22;2420;51.202;8.698;2022-09-09T09:27:34;18.60;1.00
4813;DHT22;2420;51.202;8.698;2022-09-09T09:30:12;18.70;1.00
4813;DHT22;2420;51.202;8.698;2022-09-09T09:32:39;18.80;1.00
4813;DHT22;2420;51.202;8.698;2022-09-09T09:35:12;19.20;1.00
4813;DHT22;2420;51.202;8.698;2022-09-09T09:37:40;19.70;1.00
4813;DHT22;2420;51.202;8.698;2022-09-09T09:40:14;19.90;1.00
4813;DHT22;2420;51.202;8.698;2022-09-09T09:45:47;20.10;1.00
4813;DHT22;2420;51.202;8.698;2022-09-09T09:48:13;20.20;1.00
4813;DHT22;2420;51.202;8.698;2022-09-09T09:53:31;20.30;1.00
4813;DHT22;2420;51.202;8.698;2022-09-09T09:56:05;20.30;1.00
4813;DHT22;2420;51.202;8.698;2022-09-09T09:58:36;20.40;1.00
4813;DHT22;2420;51.202;8.698;2022-09-09T10:01:03;20.50;1.00
4813;DHT22;2420;51.202;8.698;2022-09-09T10:03:34;20.50;1.00
4813;DHT22;2420;51.202;8.698;2022-09-09T10:06:06;20.20;1.00
4813;DHT22;2420;51.202;8.698;2022-09-09T10:08:34;19.70;1.00
4813;DHT22;2420;51.202;8.698;2022-09-09T10:11:26;19.60;1.00
4813;DHT22;2420;51.202;8.698;2022-09-09T10:14:16;19.70;1.00
4813;DHT22;2420;51.202;8.698;2022-09-09T10:19:36;20.20;1.00
4813;DHT22;2420;51.202;8.698;2022-09-09T10:22:25;20.20;1.00
4813;DHT22;2420;51.202;8.698;2022-09-09T10:25:10;19.90;1.00
4813;DHT22;2420;51.202;8.698;2022-09-09T10:28:10;19.60;1.00
4813;DHT22;2420;51.202;8.698;2022-09-09T10:36:13;19.10;1.00
4813;DHT22;2420;51.202;8.698;2022-09-09T10:38:46;18.90;1.00
4813;DHT22;2420;51.202;8.698;2022-09-09T10:41:26;18.80;1.00
4813;DHT22;2420;51.202;8.698;2022-09-09T10:57:46;19.10;1.00
4813;DHT22;2420;51.202;8.698;2022-09-09T11:00:24;19.20;1.00
4813;DHT22;2420;51.202;8.698;2022-09-09T11:02:57;19.40;1.00
4813;DHT22;2420;51.202;8.698;2022-09-09T11:05:45;19.40;1.00
4813;DHT22;2420;51.202;8.698;2022-09-09T11:11:19;19.70;1.00
4813;DHT22;2420;51.202;8.698;2022-09-09T11:16:56;20.20;1.00
4813;DHT22;2420;51.202;8.698;2022-09-09T11:19:37;20.10;1.00
4813;DHT22;2420;51.202;8.698;2022-09-09T11:22:37;19.90;1.00
4813;DHT22;2420;51.202;8.698;2022-09-09T11:25:18;19.90;1.00
4813;DHT22;2420;51.202;8.698;2022-09-09T11:28:09;20.20;1.00
4813;DHT22;2420;51.202;8.698;2022-09-09T11:38:50;21.10;1.00
4813;DHT22;2420;51.202;8.698;2022-09-09T11:41:16;21.20;1.00
4813;DHT22;2420;51.202;8.698;2022-09-09T11:43:47;20.70;1.00
4813;DHT22;2420;51.202;8.698;2022-09-09T11:46:15;20.40;1.00
4813;DHT22;2420;51.202;8.698;2022-09-09T11:48:44;20.20;1.00
4813;DHT22;2420;51.202;8.698;2022-09-09T11:51:26;20.00;1.00
4813;DHT22;2420;51.202;8.698;2022-09-09T11:54:01;19.70;1.00
4813;DHT22;2420;51.202;8.698;2022-09-09T11:56:44;19.70;1.00
4813;DHT22;2420;51.202;8.698;2022-09-09T11:59:30;19.80;1.00
4813;DHT22;2420;51.202;8.698;2022-09-09T12:02:00;19.90;1.00
4813;DHT22;2420;51.202;8.698;2022-09-09T12:04:36;19.90;1.00
4813;DHT22;2420;51.202;8.698;2022-09-09T12:09:56;19.70;1.00
4813;DHT22;2420;51.202;8.698;2022-09-09T12:12:29;19.70;1.00
4813;DHT22;2420;51.202;8.698;2022-09-09T12:17:47;19.30;1.00
4813;DHT22;2420;51.202;8.698;2022-09-09T12:20:34;19.20;1.00
4813;DHT22;2420;51.202;8.698;2022-09-09T12:23:18;19.20;1.00
4813;DHT22;2420;51.202;8.698;2022-09-09T12:26:00;19.00;1.00
4813;DHT22;2420;51.202;8.698;2022-09-09T12:31:07;19.10;1.00
4813;DHT22;2420;51.202;8.698;2022-09-09T12:33:37;19.30;1.00
4813;DHT22;2420;51.202;8.698;2022-09-09T12:36:06;19.40;1.00
4813;DHT22;2420;51.202;8.698;2022-09-09T12:38:37;19.60;1.00
4813;DHT22;2420;51.202;8.698;2022-09-09T12:41:03;19.90;1.00
4813;DHT22;2420;51.202;8.698;2022-09-09T12:43:29;20.10;1.00
4813;DHT22;2420;51.202;8.698;2022-09-09T12:46:01;20.10;1.00
4813;DHT22;2420;51.202;8.698;2022-09-09T12:48:37;19.90;1.00
4813;DHT22;2420;51.202;8.698;2022-09-09T12:51:16;19.90;1.00
4813;DHT22;2420;51.202;8.698;2022-09-09T12:53:44;19.90;1.00
4813;DHT22;2420;51.202;8.698;2022-09-09T12:56:20;19.80;1.00
4813;DHT22;2420;51.202;8.698;2022-09-09T12:58:49;19.80;1.00
4813;DHT22;2420;51.202;8.698;2022-09-09T13:01:23;19.80;1.00
4813;DHT22;2420;51.202;8.698;2022-09-09T13:03:48;19.70;1.00
4813;DHT22;2420;51.202;8.698;2022-09-09T13:06:32;19.60;1.00
4813;DHT22;2420;51.202;8.698;2022-09-09T13:09:01;19.60;1.00
4813;DHT22;2420;51.202;8.698;2022-09-09T13:11:39;19.50;1.00
4813;DHT22;2420;51.202;8.698;2022-09-09T13:14:16;19.30;1.00
4813;DHT22;2420;51.202;8.698;2022-09-09T13:16:57;19.20;1.00
4813;DHT22;2420;51.202;8.698;2022-09-09T13:19:23;19.30;1.00
4813;DHT22;2420;51.202;8.698;2022-09-09T13:21:53;19.40;1.00
4813;DHT22;2420;51.202;8.698;2022-09-09T13:24:33;19.50;1.00
4813;DHT22;2420;51.202;8.698;2022-09-09T13:27:02;19.60;1.00
4813;DHT22;2420;51.202;8.698;2022-09-09T13:29:29;19.60;1.00
4813;DHT22;2420;51.202;8.698;2022-09-09T13:32:15;19.60;1.00
4813;DHT22;2420;51.202;8.698;2022-09-09T13:34:57;19.60;1.00
4813;DHT22;2420;51.202;8.698;2022-09-09T13:37:36;19.70;1.00
4813;DHT22;2420;51.202;8.698;2022-09-09T13:40:05;19.60;1.00
4813;DHT22;2420;51.202;8.698;2022-09-09T13:42:33;19.50;1.00
4813;DHT22;2420;51.202;8.698;2022-09-09T13:45:00;19.50;1.00
4813;DHT22;2420;51.202;8.698;2022-09-09T13:47:36;19.30;1.00
4813;DHT22;2420;51.202;8.698;2022-09-09T13:52:50;19.60;1.00
4813;DHT22;2420;51.202;8.698;2022-09-09T13:55:19;19.40;1.00
4813;DHT22;2420;51.202;8.698;2022-09-09T13:57:53;19.20;1.00
4813;DHT22;2420;51.202;8.698;2022-09-09T14:00:20;19.00;1.00
4813;DHT22;2420;51.202;8.698;2022-09-09T14:02:46;18.80;1.00
4813;DHT22;2420;51.202;8.698;2022-09-09T14:05:12;18.70;1.00
4813;DHT22;2420;51.202;8.698;2022-09-09T14:07:39;18.60;1.00
4813;DHT22;2420;51.202;8.698;2022-09-09T14:10:06;18.50;1.00
4813;DHT22;2420;51.202;8.698;2022-09-09T14:12:32;18.40;1.00
4813;DHT22;2420;51.202;8.698;2022-09-09T14:14:57;18.40;1.00
4813;DHT22;2420;51.202;8.698;2022-09-09T14:17:25;18.40;1.00
4813;DHT22;2420;51.202;8.698;2022-09-09T14:19:54;18.70;1.00
4813;DHT22;2420;51.202;8.698;2022-09-09T14:22:20;18.90;1.00
4813;DHT22;2420;51.202;8.698;2022-09-09T14:24:45;19.10;1.00
4813;DHT22;2420;51.202;8.698;2022-09-09T14:27:11;19.20;1.00
4813;DHT22;2420;51.202;8.698;2022-09-09T14:29:37;19.20;1.00
4813;DHT22;2420;51.202;8.698;2022-09-09T14:32:02;19.40;1.00
4813;DHT22;2420;51.202;8.698;2022-09-09T14:34:28;19.30;1.00
4813;DHT22;2420;51.202;8.698;2022-09-09T14:36:54;19.10;1.00
4813;DHT22;2420;51.202;8.698;2022-09-09T14:39:19;19.00;1.00
4813;DHT22;2420;51.202;8.698;2022-09-09T14:41:45;18.90;1.00
4813;DHT22;2420;51.202;8.698;2022-09-09T14:44:11;18.80;1.00
4813;DHT22;2420;51.202;8.698;2022-09-09T14:46:36;18.80;1.00
4813;DHT22;2420;51.202;8.698;2022-09-09T14:49:02;18.80;1.00
4813;DHT22;2420;51.202;8.698;2022-09-09T14:51:28;18.80;1.00
4813;DHT22;2420;51.202;8.698;2022-09-09T14:53:58;18.80;1.00
4813;DHT22;2420;51.202;8.698;2022-09-09T14:56:26;18.70;1.00
4813;DHT22;2420;51.202;8.698;2022-09-09T14:58:54;18.60;1.00
4813;DHT22;2420;51.202;8.698;2022-09-09T15:01:21;18.60;1.00
4813;DHT22;2420;51.202;8.698;2022-09-09T15:04:01;18.60;1.00
4813;DHT22;2420;51.202;8.698;2022-09-09T15:06:30;18.60;1.00
4813;DHT22;2420;51.202;8.698;2022-09-09T15:08:58;18.50;1.00
4813;DHT22;2420;51.202;8.698;2022-09-09T15:11:27;18.60;1.00
4813;DHT22;2420;51.202;8.698;2022-09-09T15:13:53;18.60;1.00
4813;DHT22;2420;51.202;8.698;2022-09-09T15:16:20;18.60;1.00
4813;DHT22;2420;51.202;8.698;2022-09-09T15:18:50;18.50;1.00
4813;DHT22;2420;51.202;8.698;2022-09-09T15:21:18;18.60;1.00
4813;DHT22;2420;51.202;8.698;2022-09-09T15:23:48;18.70;1.00
4813;DHT22;2420;51.202;8.698;2022-09-09T15:26:14;18.80;1.00
4813;DHT22;2420;51.202;8.698;2022-09-09T15:28:41;18.90;1.00
4813;DHT22;2420;51.202;8.698;2022-09-09T15:31:20;18.80;1.00
4813;DHT22;2420;51.202;8.698;2022-09-09T15:33:53;18.70;1.00
4813;DHT22;2420;51.202;8.698;2022-09-09T15:39:21;18.70;1.00
4813;DHT22;2420;51.202;8.698;2022-09-09T15:41:48;18.70;1.00
4813;DHT22;2420;51.202;8.698;2022-09-09T15:44:14;18.70;1.00
4813;DHT22;2420;51.202;8.698;2022-09-09T15:46:49;18.70;1.00
4813;DHT22;2420;51.202;8.698;2022-09-09T15:51:44;18.60;1.00
4813;DHT22;2420;51.202;8.698;2022-09-09T15:54:13;18.60;1.00
4813;DHT22;2420;51.202;8.698;2022-09-09T15:56:39;18.50;1.00
4813;DHT22;2420;51.202;8.698;2022-09-09T15:59:05;18.40;1.00
4813;DHT22;2420;51.202;8.698;2022-09-09T16:01:31;18.40;1.00
4813;DHT22;2420;51.202;8.698;2022-09-09T16:03:58;18.30;1.00
4813;DHT22;2420;51.202;8.698;2022-09-09T16:06:26;18.20;1.00
4813;DHT22;2420;51.202;8.698;2022-09-09T16:08:53;18.10;1.00
4813;DHT22;2420;51.202;8.698;2022-09-09T16:11:27;18.10;1.00
4813;DHT22;2420;51.202;8.698;2022-09-09T16:13:54;18.00;1.00
4813;DHT22;2420;51.202;8.698;2022-09-09T16:16:22;18.00;1.00
4813;DHT22;2420;51.202;8.698;2022-09-09T16:18:55;18.00;1.00
4813;DHT22;2420;51.202;8.698;2022-09-09T16:21:33;17.90;1.00
4813;DHT22;2420;51.202;8.698;2022-09-09T16:24:01;17.90;1.00
4813;DHT22;2420;51.202;8.698;2022-09-09T16:26:31;17.90;1.00
4813;DHT22;2420;51.202;8.698;2022-09-09T16:28:57;17.90;1.00
4813;DHT22;2420;51.202;8.698;2022-09-09T16:31:24;18.00;1.00
4813;DHT22;2420;51.202;8.698;2022-09-09T16:33:51;17.80;1.00
4813;DHT22;2420;51.202;8.698;2022-09-09T16:36:20;17.80;1.00
4813;DHT22;2420;51.202;8.698;2022-09-09T16:38:45;17.80;1.00
4813;DHT22;2420;51.202;8.698;2022-09-09T16:41:12;17.80;1.00
4813;DHT22;2420;51.202;8.698;2022-09-09T16:43:40;17.60;1.00
4813;DHT22;2420;51.202;8.698;2022-09-09T16:46:16;17.50;1.00
4813;DHT22;2420;51.202;8.698;2022-09-09T16:48:44;17.40;1.00
4813;DHT22;2420;51.202;8.698;2022-09-09T16:51:16;17.20;1.00
4813;DHT22;2420;51.202;8.698;2022-09-09T16:53:42;17.10;1.00
4813;DHT22;2420;51.202;8.698;2022-09-09T16:56:10;16.90;1.00
4813;DHT22;2420;51.202;8.698;2022-09-09T16:58:36;16.80;1.00
4813;DHT22;2420;51.202;8.698;2022-09-09T17:01:02;16.70;1.00
4813;DHT22;2420;51.202;8.698;2022-09-09T17:03:28;16.70;1.00
4813;DHT22;2420;51.202;8.698;2022-09-09T17:05:54;16.70;1.00
4813;DHT22;2420;51.202;8.698;2022-09-09T17:08:20;16.70;1.00
4813;DHT22;2420;51.202;8.698;2022-09-09T17:10:46;16.60;1.00
4813;DHT22;2420;51.202;8.698;2022-09-09T17:13:12;16.60;1.00
4813;DHT22;2420;51.202;8.698;2022-09-09T17:15:42;16.50;1.00
4813;DHT22;2420;51.202;8.698;2022-09-09T17:18:09;16.50;1.00
4813;DHT22;2420;51.202;8.698;2022-09-09T17:20:39;16.50;1.00
4813;DHT22;2420;51.202;8.698;2022-09-09T17:23:06;16.40;1.00
4813;DHT22;2420;51.202;8.698;2022-09-09T17:25:31;16.50;1.00
4813;DHT22;2420;51.202;8.698;2022-09-09T17:27:58;16.50;1.00
4813;DHT22;2420;51.202;8.698;2022-09-09T17:30:24;16.40;1.00
4813;DHT22;2420;51.202;8.698;2022-09-09T17:32:49;16.40;1.00
4813;DHT22;2420;51.202;8.698;2022-09-09T17:35:15;16.40;1.00
4813;DHT22;2420;51.202;8.698;2022-09-09T17:37:40;16.40;1.00
4813;DHT22;2420;51.202;8.698;2022-09-09T17:40:07;16.30;1.00
4813;DHT22;2420;51.202;8.698;2022-09-09T17:42:33;16.30;1.00
4813;DHT22;2420;51.202;8.698;2022-09-09T17:44:59;16.30;1.00
4813;DHT22;2420;51.202;8.698;2022-09-09T17:47:25;16.20;1.00
4813;DHT22;2420;51.202;8.698;2022-09-09T17:49:51;16.10;1.00
4813;DHT22;2420;51.202;8.698;2022-09-09T17:52:16;16.20;1.00
4813;DHT22;2420;51.202;8.698;2022-09-09T17:54:42;16.20;1.00
4813;DHT22;2420;51.202;8.698;2022-09-09T17:57:07;16.30;1.00
4813;DHT22;2420;51.202;8.698;2022-09-09T17:59:33;16.20;1.00
4813;DHT22;2420;51.202;8.698;2022-09-09T18:01:58;16.30;1.00
4813;DHT22;2420;51.202;8.698;2022-09-09T18:04:24;16.20;1.00
4813;DHT22;2420;51.202;8.698;2022-09-09T18:06:52;16.20;1.00
4813;DHT22;2420;51.202;8.698;2022-09-09T18:09:23;16.20;1.00
4813;DHT22;2420;51.202;8.698;2022-09-09T18:11:52;16.20;1.00
4813;DHT22;2420;51.202;8.698;2022-09-09T18:14:27;16.20;1.00
4813;DHT22;2420;51.202;8.698;2022-09-09T18:16:54;16.10;1.00
4813;DHT22;2420;51.202;8.698;2022-09-09T18:19:23;16.10;1.00
4813;DHT22;2420;51.202;8.698;2022-09-09T18:21:48;16.10;1.00
4813;DHT22;2420;51.202;8.698;2022-09-09T18:24:16;16.00;1.00
4813;DHT22;2420;51.202;8.698;2022-09-09T18:26:43;15.90;1.00
4813;DHT22;2420;51.202;8.698;2022-09-09T18:29:11;15.90;1.00
4813;DHT22;2420;51.202;8.698;2022-09-09T18:31:37;15.90;1.00
4813;DHT22;2420;51.202;8.698;2022-09-09T18:34:05;15.90;1.00